Time;durP1;ratioP1;P1;durP2;ratioP2;P2;SDS_P1;SDS_P2;PMS_P1;PMS_P2;Temp;Humidity;BMP_temperature;BMP_pressure;BME280_temperature;BME280_humidity;BME280_pressure;Samples;Min_cycle;Max_cycle;Signal;HPM_P1;HPM_P2
2021/07/28 00:02:13;;;;;;;;;8.50;7.25;;;;;;;;5053366;28;8871;-81
2021/07/28 00:04:41;;;;;;;;;7.40;6.20;;;;;;;;5057490;28;9001;-80
2021/07/28 00:07:10;;;;;;;;;3.00;3.00;;;;;;;;5044875;28;8946;-81
2021/07/28 00:09:37;;;;;;;;;5.00;5.00;;;;;;;;5065732;28;8860;-80
2021/07/28 00:12:05;;;;;;;;;7.00;7.00;;;;;;;;5056092;28;8882;-80
2021/07/28 00:14:33;;;;;;;;;6.50;6.50;;;;;;;;5052592;28;8846;-79
2021/07/28 00:17:00;;;;;;;;;7.25;7.25;;;;;;;;5057622;28;8909;-78
2021/07/28 00:19:31;;;;;;;;;6.75;6.25;;;;;;;;5048983;28;8887;-80
2021/07/28 00:24:44;;;;;;;;;4.50;4.50;;;;;;;;5058798;28;8860;-80
2021/07/28 00:27:11;;;;;;;;;6.00;6.00;;;;;;;;5052812;28;8875;-80
2021/07/28 00:29:38;;;;;;;;;6.25;6.25;;;;;;;;5055069;28;8885;-77
2021/07/28 00:32:06;;;;;;;;;9.00;6.75;;;;;;;;5046240;28;8818;-76
2021/07/28 00:34:34;;;;;;;;;6.50;6.50;;;;;;;;5061129;28;8852;-76
2021/07/28 00:37:01;;;;;;;;;5.75;4.75;;;;;;;;5055449;28;8887;-77
2021/07/28 00:39:28;;;;;;;;;6.50;6.50;;;;;;;;5031980;28;8883;-80
2021/07/28 00:41:57;;;;;;;;;6.50;6.50;;;;;;;;5038747;28;8871;-81
2021/07/28 00:44:24;;;;;;;;;6.00;6.00;;;;;;;;5047472;28;8858;-80
2021/07/28 00:46:54;;;;;;;;;6.25;6.00;;;;;;;;5053987;28;9458;-80
2021/07/28 00:49:21;;;;;;;;;6.60;6.60;;;;;;;;5051461;28;8893;-80
2021/07/28 00:51:49;;;;;;;;;8.00;7.00;;;;;;;;5046232;28;8902;-79
2021/07/28 00:54:16;;;;;;;;;7.00;6.40;;;;;;;;5044096;28;8900;-80
2021/07/28 00:56:44;;;;;;;;;8.50;7.75;;;;;;;;5057189;28;8849;-77
2021/07/28 00:59:12;;;;;;;;;5.40;5.40;;;;;;;;5061194;28;8843;-75
2021/07/28 01:01:40;;;;;;;;;4.75;4.75;;;;;;;;5046150;28;8815;-77
2021/07/28 01:04:07;;;;;;;;;8.00;7.20;;;;;;;;5064386;28;8867;-75
2021/07/28 01:06:34;;;;;;;;;6.60;5.00;;;;;;;;5066550;28;8864;-79
2021/07/28 01:09:01;;;;;;;;;10.40;6.00;;;;;;;;5065567;28;8910;-79
2021/07/28 01:11:29;;;;;;;;;9.50;9.00;;;;;;;;5054536;28;9666;-79
2021/07/28 01:13:56;;;;;;;;;7.00;6.40;;;;;;;;5050561;28;8841;-75
2021/07/28 01:16:27;;;;;;;;;7.50;7.50;;;;;;;;5055774;28;8878;-76
2021/07/28 01:18:55;;;;;;;;;5.50;5.50;;;;;;;;5053527;28;8868;-79
2021/07/28 01:21:22;;;;;;;;;8.25;6.25;;;;;;;;5059968;28;8856;-79
2021/07/28 01:23:53;;;;;;;;;7.75;7.75;;;;;;;;5065339;28;8880;-78
2021/07/28 01:26:20;;;;;;;;;6.75;6.75;;;;;;;;5059419;28;8858;-78
2021/07/28 01:28:47;;;;;;;;;6.25;6.00;;;;;;;;5059277;28;8990;-75
2021/07/28 01:31:16;;;;;;;;;7.00;7.00;;;;;;;;5044682;28;8811;-80
2021/07/28 01:33:46;;;;;;;;;8.00;8.00;;;;;;;;5050699;28;8890;-79
2021/07/28 01:36:16;;;;;;;;;8.75;8.75;;;;;;;;5050484;28;8869;-76
2021/07/28 01:38:43;;;;;;;;;9.00;9.00;;;;;;;;5055026;28;8975;-79
2021/07/28 01:41:12;;;;;;;;;7.00;7.00;;;;;;;;5049789;28;8880;-81
2021/07/28 01:43:40;;;;;;;;;7.25;6.25;;;;;;;;5064697;28;8906;-81
2021/07/28 01:46:08;;;;;;;;;8.00;8.00;;;;;;;;5050277;28;8876;-80
2021/07/28 01:48:35;;;;;;;;;7.75;7.75;;;;;;;;5048444;28;8867;-78
2021/07/28 01:51:03;;;;;;;;;10.25;8.00;;;;;;;;5047582;28;8905;-74
2021/07/28 01:53:30;;;;;;;;;9.00;9.00;;;;;;;;5056834;28;8872;-76
2021/07/28 01:55:59;;;;;;;;;11.50;11.25;;;;;;;;5053307;28;8996;-79
2021/07/28 01:58:27;;;;;;;;;9.75;9.75;;;;;;;;5052084;28;8886;-78
2021/07/28 02:00:54;;;;;;;;;9.25;9.25;;;;;;;;5053518;28;8843;-76
2021/07/28 02:03:22;;;;;;;;;11.75;10.00;;;;;;;;5046017;28;8872;-81
2021/07/28 02:05:49;;;;;;;;;10.25;9.25;;;;;;;;5050388;28;8894;-80
2021/07/28 02:08:17;;;;;;;;;9.00;9.00;;;;;;;;5059283;28;8856;-81
2021/07/28 02:10:46;;;;;;;;;9.25;9.25;;;;;;;;5058716;28;8881;-80
2021/07/28 02:13:14;;;;;;;;;9.75;9.75;;;;;;;;5053610;28;8874;-80
2021/07/28 02:15:43;;;;;;;;;9.00;9.00;;;;;;;;5046712;28;8872;-81
2021/07/28 02:18:10;;;;;;;;;9.75;9.50;;;;;;;;5044480;28;8862;-75
2021/07/28 02:20:38;;;;;;;;;12.50;9.50;;;;;;;;5055543;28;8858;-79
2021/07/28 02:23:05;;;;;;;;;6.50;6.50;;;;;;;;5058421;28;8878;-79
2021/07/28 02:25:33;;;;;;;;;11.50;7.50;;;;;;;;5061142;28;8875;-78
2021/07/28 02:28:00;;;;;;;;;8.75;8.75;;;;;;;;5059678;28;8891;-75
2021/07/28 02:30:27;;;;;;;;;8.00;8.00;;;;;;;;5061655;28;8797;-81
2021/07/28 02:32:56;;;;;;;;;10.25;10.25;;;;;;;;5061179;28;8855;-82
2021/07/28 02:35:23;;;;;;;;;7.00;5.50;;;;;;;;5052253;28;8876;-80
2021/07/28 02:37:50;;;;;;;;;8.25;8.25;;;;;;;;5045609;28;9704;-77
2021/07/28 02:40:20;;;;;;;;;7.50;7.00;;;;;;;;5044249;28;8877;-81
2021/07/28 02:42:48;;;;;;;;;6.25;6.25;;;;;;;;5060640;28;8987;-81
2021/07/28 02:45:15;;;;;;;;;5.00;5.00;;;;;;;;5052299;28;8848;-79
2021/07/28 02:47:42;;;;;;;;;6.50;6.50;;;;;;;;5042629;28;8873;-81
2021/07/28 02:50:12;;;;;;;;;9.25;8.50;;;;;;;;5047680;28;8885;-79
2021/07/28 02:52:39;;;;;;;;;7.50;7.50;;;;;;;;5047735;28;8918;-79
2021/07/28 02:55:07;;;;;;;;;8.00;8.00;;;;;;;;5046908;28;8866;-81
2021/07/28 02:57:35;;;;;;;;;10.75;9.00;;;;;;;;5049926;28;8862;-80
2021/07/28 03:00:03;;;;;;;;;6.25;6.25;;;;;;;;5047616;28;9846;-80
2021/07/28 03:02:30;;;;;;;;;8.50;8.00;;;;;;;;5049822;28;8793;-78
2021/07/28 03:04:57;;;;;;;;;8.00;6.75;;;;;;;;5062966;28;9015;-77
2021/07/28 03:07:26;;;;;;;;;7.50;6.00;;;;;;;;5064497;28;9642;-82
2021/07/28 03:09:53;;;;;;;;;8.00;6.25;;;;;;;;5054894;28;9574;-79
2021/07/28 03:12:20;;;;;;;;;9.00;7.75;;;;;;;;5050894;28;8872;-78
2021/07/28 03:14:47;;;;;;;;;4.25;4.25;;;;;;;;5058040;28;8864;-81
2021/07/28 03:17:17;;;;;;;;;3.25;3.25;;;;;;;;5051857;28;8860;-78
2021/07/28 03:19:44;;;;;;;;;8.25;5.75;;;;;;;;5054045;28;9671;-78
2021/07/28 03:22:11;;;;;;;;;8.00;6.25;;;;;;;;5062940;28;8868;-80
2021/07/28 03:24:40;;;;;;;;;6.00;4.00;;;;;;;;5048112;28;8870;-77
2021/07/28 03:27:07;;;;;;;;;4.00;3.00;;;;;;;;5060616;28;8856;-80
2021/07/28 03:29:34;;;;;;;;;4.75;4.75;;;;;;;;5043792;28;8882;-78
2021/07/28 03:32:01;;;;;;;;;5.00;4.00;;;;;;;;5062632;28;8816;-81
2021/07/28 03:34:29;;;;;;;;;5.00;5.00;;;;;;;;5046943;28;8950;-81
2021/07/28 03:36:56;;;;;;;;;3.00;3.00;;;;;;;;5042971;28;8927;-81
2021/07/28 03:39:23;;;;;;;;;3.50;3.50;;;;;;;;5051175;28;8977;-78
2021/07/28 03:41:52;;;;;;;;;3.00;3.00;;;;;;;;5052524;28;8860;-79
2021/07/28 03:44:19;;;;;;;;;4.00;4.00;;;;;;;;5055932;28;8926;-77
2021/07/28 03:46:46;;;;;;;;;6.00;3.25;;;;;;;;5049110;28;8856;-79
2021/07/28 03:49:13;;;;;;;;;4.50;4.50;;;;;;;;5053416;28;8884;-81
2021/07/28 03:51:40;;;;;;;;;4.00;3.50;;;;;;;;5043832;28;8858;-80
2021/07/28 03:54:08;;;;;;;;;3.50;3.50;;;;;;;;5059450;28;8884;-78
2021/07/28 03:56:35;;;;;;;;;3.00;2.75;;;;;;;;5052621;28;8876;-78
2021/07/28 03:59:03;;;;;;;;;3.25;3.25;;;;;;;;5064202;28;9018;-77
2021/07/28 04:01:31;;;;;;;;;3.25;2.50;;;;;;;;5042317;28;8811;-80
2021/07/28 04:03:58;;;;;;;;;3.50;3.50;;;;;;;;5049011;28;8872;-76
2021/07/28 04:06:25;;;;;;;;;3.00;3.00;;;;;;;;5059855;28;8861;-80
2021/07/28 04:08:52;;;;;;;;;4.00;4.00;;;;;;;;5060733;28;8892;-77
2021/07/28 04:11:19;;;;;;;;;3.50;3.50;;;;;;;;5053841;28;8985;-80
2021/07/28 04:13:47;;;;;;;;;4.00;4.00;;;;;;;;5048778;28;8856;-80
2021/07/28 04:16:15;;;;;;;;;7.00;5.50;;;;;;;;5058891;28;8856;-81
2021/07/28 04:18:42;;;;;;;;;3.50;3.50;;;;;;;;5059808;28;8890;-81
2021/07/28 04:21:10;;;;;;;;;3.00;3.00;;;;;;;;5049053;28;8977;-79
2021/07/28 04:23:37;;;;;;;;;5.00;5.00;;;;;;;;5049827;28;8860;-75
2021/07/28 04:26:04;;;;;;;;;4.00;4.00;;;;;;;;5051985;28;8866;-77
2021/07/28 04:28:31;;;;;;;;;5.25;3.75;;;;;;;;5059558;28;8848;-78
2021/07/28 04:30:58;;;;;;;;;5.00;3.25;;;;;;;;5059185;28;8785;-77
2021/07/28 04:33:27;;;;;;;;;3.50;3.25;;;;;;;;5062533;28;8867;-76
2021/07/28 04:35:55;;;;;;;;;4.75;4.50;;;;;;;;5051272;28;8848;-78
2021/07/28 04:38:22;;;;;;;;;3.25;3.25;;;;;;;;5046478;28;8852;-77
2021/07/28 04:40:52;;;;;;;;;3.00;3.00;;;;;;;;5044607;28;8995;-76
2021/07/28 04:43:19;;;;;;;;;4.00;4.00;;;;;;;;5046623;28;8941;-75
2021/07/28 04:45:47;;;;;;;;;6.50;4.50;;;;;;;;5044164;28;8848;-77
2021/07/28 04:48:14;;;;;;;;;4.50;4.50;;;;;;;;5045390;28;9725;-76
2021/07/28 04:50:43;;;;;;;;;4.00;4.00;;;;;;;;5046193;28;9698;-76
2021/07/28 04:53:10;;;;;;;;;3.00;3.00;;;;;;;;5044781;28;9641;-76
2021/07/28 04:55:37;;;;;;;;;4.00;4.00;;;;;;;;5045732;28;8840;-77
2021/07/28 04:58:06;;;;;;;;;3.00;3.00;;;;;;;;5035392;28;8859;-77
2021/07/28 05:00:33;;;;;;;;;1.75;1.75;;;;;;;;5046898;28;8943;-77
2021/07/28 05:03:00;;;;;;;;;3.00;3.00;;;;;;;;5033825;28;8860;-78
2021/07/28 05:05:28;;;;;;;;;5.00;3.75;;;;;;;;5028150;28;8905;-78
2021/07/28 05:07:56;;;;;;;;;4.50;4.50;;;;;;;;5027969;28;8868;-75
2021/07/28 05:10:25;;;;;;;;;3.00;3.00;;;;;;;;5044821;28;8868;-78
2021/07/28 05:12:52;;;;;;;;;4.00;4.00;;;;;;;;5045421;28;8856;-77
2021/07/28 05:15:19;;;;;;;;;4.75;3.75;;;;;;;;5049250;28;8911;-77
2021/07/28 05:17:47;;;;;;;;;4.25;4.25;;;;;;;;5045454;28;8860;-77
2021/07/28 05:20:16;;;;;;;;;3.25;3.25;;;;;;;;5044730;28;8864;-75
2021/07/28 05:22:43;;;;;;;;;4.00;4.00;;;;;;;;5044965;28;8870;-76
2021/07/28 05:25:14;;;;;;;;;2.50;2.50;;;;;;;;5044912;28;8840;-76
2021/07/28 05:27:41;;;;;;;;;5.25;5.25;;;;;;;;5044168;28;8848;-75
2021/07/28 05:30:10;;;;;;;;;4.00;4.00;;;;;;;;5043799;28;8882;-76
2021/07/28 05:32:37;;;;;;;;;4.00;4.00;;;;;;;;5024851;28;8867;-76
2021/07/28 05:35:05;;;;;;;;;3.75;3.75;;;;;;;;5044318;28;8892;-78
2021/07/28 05:37:32;;;;;;;;;5.00;3.25;;;;;;;;5045201;28;9038;-77
2021/07/28 05:39:59;;;;;;;;;6.50;4.00;;;;;;;;5047904;28;8851;-75
2021/07/28 05:42:28;;;;;;;;;4.25;2.50;;;;;;;;5045675;28;9255;-76
2021/07/28 05:44:55;;;;;;;;;3.25;3.25;;;;;;;;5038362;28;8886;-76
2021/07/28 05:47:22;;;;;;;;;4.00;4.00;;;;;;;;5043710;28;8856;-77
2021/07/28 05:49:50;;;;;;;;;1.50;1.50;;;;;;;;5040361;28;8870;-80
2021/07/28 05:52:17;;;;;;;;;3.00;3.00;;;;;;;;5043743;28;8835;-80
2021/07/28 05:54:44;;;;;;;;;3.00;3.00;;;;;;;;5042968;28;8854;-78
2021/07/28 05:57:13;;;;;;;;;6.67;3.00;;;;;;;;5044153;28;8887;-78
2021/07/28 05:59:42;;;;;;;;;2.50;2.50;;;;;;;;5042708;28;8981;-79
2021/07/28 06:02:09;;;;;;;;;1.00;1.00;;;;;;;;5028177;28;8913;-82
2021/07/28 06:04:38;;;;;;;;;4.75;3.00;;;;;;;;5050726;28;8846;-83
2021/07/28 06:07:07;;;;;;;;;3.75;3.75;;;;;;;;5041972;28;8988;-79
2021/07/28 06:09:35;;;;;;;;;3.75;3.75;;;;;;;;5056764;28;9663;-82
2021/07/28 06:12:02;;;;;;;;;4.25;2.75;;;;;;;;5042298;28;8846;-80
2021/07/28 06:14:29;;;;;;;;;3.25;3.25;;;;;;;;5026787;28;8997;-82
2021/07/28 06:16:58;;;;;;;;;2.25;2.25;;;;;;;;5041179;28;8846;-83
2021/07/28 06:19:25;;;;;;;;;2.00;2.00;;;;;;;;5043872;28;8969;-79
2021/07/28 06:21:53;;;;;;;;;3.50;2.50;;;;;;;;5045047;28;9617;-80
2021/07/28 06:24:20;;;;;;;;;3.50;2.75;;;;;;;;5025589;28;8943;-79
2021/07/28 06:26:47;;;;;;;;;4.25;4.00;;;;;;;;5028094;28;8877;-82
2021/07/28 06:29:14;;;;;;;;;3.75;2.25;;;;;;;;5044144;28;8885;-83
2021/07/28 06:31:41;;;;;;;;;3.00;3.00;;;;;;;;5047972;28;8824;-80
2021/07/28 06:34:10;;;;;;;;;4.00;3.00;;;;;;;;5039968;28;9916;-82
2021/07/28 06:36:38;;;;;;;;;3.00;2.25;;;;;;;;5044876;28;8908;-80
2021/07/28 06:39:05;;;;;;;;;1.50;1.50;;;;;;;;5041676;28;8862;-82
2021/07/28 06:41:32;;;;;;;;;3.75;3.50;;;;;;;;5032015;28;8866;-81
2021/07/28 06:43:59;;;;;;;;;4.25;4.25;;;;;;;;5045387;28;8904;-81
2021/07/28 06:46:27;;;;;;;;;5.75;3.00;;;;;;;;5044906;28;9010;-81
2021/07/28 06:48:54;;;;;;;;;3.50;3.50;;;;;;;;5047418;28;8977;-82
2021/07/28 06:51:22;;;;;;;;;3.50;1.25;;;;;;;;5044550;28;8896;-81
2021/07/28 06:53:50;;;;;;;;;2.00;2.00;;;;;;;;5053354;28;9793;-81
2021/07/28 06:56:17;;;;;;;;;1.00;1.00;;;;;;;;5047425;28;8858;-81
2021/07/28 06:58:44;;;;;;;;;4.50;2.75;;;;;;;;5039473;28;8866;-82
2021/07/28 07:01:12;;;;;;;;;2.00;2.00;;;;;;;;5049260;28;8815;-84
2021/07/28 07:03:39;;;;;;;;;2.00;2.00;;;;;;;;5061198;28;9631;-81
2021/07/28 07:06:07;;;;;;;;;4.00;4.00;;;;;;;;5060954;28;8907;-85
2021/07/28 07:08:35;;;;;;;;;5.75;4.00;;;;;;;;5047325;28;9056;-87
2021/07/28 07:11:03;;;;;;;;;2.25;2.25;;;;;;;;5054064;28;9048;-82
2021/07/28 07:13:30;;;;;;;;;2.00;2.00;;;;;;;;5016949;28;8912;-85
2021/07/28 07:15:57;;;;;;;;;4.50;3.00;;;;;;;;5062395;28;9465;-90
2021/07/28 07:18:25;;;;;;;;;3.25;2.25;;;;;;;;5053153;28;8920;-84
2021/07/28 07:20:52;;;;;;;;;2.25;2.00;;;;;;;;5046047;28;8890;-90
2021/07/28 07:23:19;;;;;;;;;3.50;3.50;;;;;;;;5050700;28;8979;-84
2021/07/28 07:25:48;;;;;;;;;3.00;3.00;;;;;;;;5043517;28;8870;-93
2021/07/28 07:28:16;;;;;;;;;4.00;4.00;;;;;;;;5043973;28;8969;-90
2021/07/28 07:30:43;;;;;;;;;3.25;3.25;;;;;;;;5041298;28;8941;-85
2021/07/28 07:35:55;;;;;;;;;2.75;2.75;;;;;;;;5027325;28;8831;-89
2021/07/28 07:38:22;;;;;;;;;3.75;3.75;;;;;;;;5042045;28;8990;-86
2021/07/28 07:40:51;;;;;;;;;3.25;3.25;;;;;;;;5045262;28;8881;-87
2021/07/28 07:43:19;;;;;;;;;3.00;2.00;;;;;;;;5024390;28;8933;-88
2021/07/28 07:45:46;;;;;;;;;3.00;3.00;;;;;;;;5044743;28;9655;-84
2021/07/28 07:48:13;;;;;;;;;4.75;3.00;;;;;;;;5042683;28;8993;-83
2021/07/28 07:50:41;;;;;;;;;2.75;2.75;;;;;;;;5046673;28;8840;-80
2021/07/28 07:53:08;;;;;;;;;4.75;3.00;;;;;;;;5037541;28;8885;-88
2021/07/28 07:55:36;;;;;;;;;3.40;3.00;;;;;;;;5040599;28;8878;-88
2021/07/28 07:58:05;;;;;;;;;3.25;2.25;;;;;;;;5046197;28;8839;-88
2021/07/28 08:00:32;;;;;;;;;2.20;2.20;;;;;;;;5042816;28;8791;-87
2021/07/28 08:02:59;;;;;;;;;3.00;3.00;;;;;;;;5047872;28;9001;-84
2021/07/28 08:05:27;;;;;;;;;2.40;2.40;;;;;;;;5049693;28;8854;-84
2021/07/28 08:07:54;;;;;;;;;2.20;1.40;;;;;;;;5045751;28;8867;-86
2021/07/28 08:10:21;;;;;;;;;3.00;3.00;;;;;;;;5044823;28;8878;-89
2021/07/28 08:13:12;;;;;;;;;3.80;2.40;;;;;;;;5043620;28;8862;-85
2021/07/28 08:15:40;;;;;;;;;4.00;2.60;;;;;;;;5049436;28;8863;-90
2021/07/28 08:18:09;;;;;;;;;4.00;2.80;;;;;;;;5050270;28;8860;-83
2021/07/28 08:20:44;;;;;;;;;2.00;2.00;;;;;;;;5066320;28;8903;-88
2021/07/28 08:23:13;;;;;;;;;4.00;2.80;;;;;;;;5040396;28;8945;-85
2021/07/28 08:25:41;;;;;;;;;3.00;3.00;;;;;;;;5047355;28;8893;-83
2021/07/28 08:28:08;;;;;;;;;3.20;2.00;;;;;;;;5024006;28;8865;-82
2021/07/28 08:30:37;;;;;;;;;2.00;2.00;;;;;;;;5035045;28;8825;-87
2021/07/28 08:33:04;;;;;;;;;3.00;3.00;;;;;;;;5045117;28;9616;-87
2021/07/28 08:35:31;;;;;;;;;2.20;2.20;;;;;;;;5044299;28;9659;-84
2021/07/28 08:37:58;;;;;;;;;4.20;3.80;;;;;;;;5058545;28;9641;-85
2021/07/28 08:40:25;;;;;;;;;2.60;2.60;;;;;;;;5050579;28;8871;-84
2021/07/28 08:42:56;;;;;;;;;3.80;2.00;;;;;;;;5055057;28;8906;-84
2021/07/28 08:45:23;;;;;;;;;3.20;3.20;;;;;;;;5045325;28;8868;-84
2021/07/28 08:47:52;;;;;;;;;2.60;2.60;;;;;;;;5055465;28;8973;-82
2021/07/28 08:50:20;;;;;;;;;4.00;4.00;;;;;;;;5039858;28;8881;-83
2021/07/28 08:52:47;;;;;;;;;2.80;2.80;;;;;;;;5052111;28;8895;-84
2021/07/28 08:55:15;;;;;;;;;2.00;2.00;;;;;;;;5045499;28;8876;-82
2021/07/28 08:57:42;;;;;;;;;4.80;4.80;;;;;;;;5048448;28;8977;-83
2021/07/28 09:00:12;;;;;;;;;2.00;2.00;;;;;;;;5045968;28;8864;-84
2021/07/28 09:02:40;;;;;;;;;3.20;3.00;;;;;;;;5045805;28;8991;-83
2021/07/28 09:05:10;;;;;;;;;2.40;2.40;;;;;;;;5063542;28;9359;-83
2021/07/28 09:07:40;;;;;;;;;3.00;2.00;;;;;;;;5052099;28;8932;-82
2021/07/28 09:10:12;;;;;;;;;2.40;2.40;;;;;;;;5063304;28;8987;-84
2021/07/28 09:12:42;;;;;;;;;5.00;3.20;;;;;;;;5053627;28;8895;-82
2021/07/28 09:15:10;;;;;;;;;2.80;2.80;;;;;;;;5062744;28;8998;-81
2021/07/28 09:17:44;;;;;;;;;2.00;2.00;;;;;;;;5045801;28;8880;-82
2021/07/28 09:20:23;;;;;;;;;2.00;2.00;;;;;;;;5048335;28;8920;-82
2021/07/28 09:22:51;;;;;;;;;3.00;3.00;;;;;;;;5044138;28;8862;-81
2021/07/28 09:25:22;;;;;;;;;2.00;2.00;;;;;;;;5022837;28;8981;-83
2021/07/28 09:27:51;;;;;;;;;2.80;1.00;;;;;;;;5036495;28;8865;-80
2021/07/28 09:30:20;;;;;;;;;1.60;1.60;;;;;;;;5064890;28;8872;-80
2021/07/28 09:33:04;;;;;;;;;2.00;2.00;;;;;;;;5050883;28;8880;-82
2021/07/28 09:36:08;;;;;;;;;2.00;2.00;;;;;;;;5064614;28;8891;-80
2021/07/28 09:38:42;;;;;;;;;1.80;1.80;;;;;;;;5052114;28;8871;-78
2021/07/28 09:41:22;;;;;;;;;2.40;2.20;;;;;;;;5053800;28;8982;-80
2021/07/28 09:43:52;;;;;;;;;1.40;1.40;;;;;;;;5033626;28;8868;-80
2021/07/28 09:46:27;;;;;;;;;2.00;2.00;;;;;;;;5051771;28;8846;-78
2021/07/28 09:48:54;;;;;;;;;1.00;1.00;;;;;;;;5042893;28;8883;-81
2021/07/28 09:51:41;;;;;;;;;2.00;2.00;;;;;;;;5050882;28;8854;-80
2021/07/28 09:54:10;;;;;;;;;3.80;2.60;;;;;;;;5059485;28;8880;-80
2021/07/28 09:56:41;;;;;;;;;2.40;2.40;;;;;;;;5055556;28;8983;-80
2021/07/28 09:59:08;;;;;;;;;4.00;2.40;;;;;;;;5025547;28;8881;-77
2021/07/28 10:01:36;;;;;;;;;3.40;2.20;;;;;;;;5042814;28;8823;-80
2021/07/28 10:04:06;;;;;;;;;1.20;1.20;;;;;;;;5041565;28;8862;-79
2021/07/28 10:06:39;;;;;;;;;2.00;2.00;;;;;;;;5043904;28;8878;-78
2021/07/28 10:09:10;;;;;;;;;1.80;1.80;;;;;;;;5042354;28;8952;-82
2021/07/28 10:11:39;;;;;;;;;2.20;2.20;;;;;;;;5045551;28;8881;-77
2021/07/28 10:14:07;;;;;;;;;2.00;2.00;;;;;;;;5043774;28;8866;-83
2021/07/28 10:16:35;;;;;;;;;2.00;2.00;;;;;;;;5058260;28;8949;-79
2021/07/28 10:19:04;;;;;;;;;1.00;1.00;;;;;;;;5046427;28;8988;-82
2021/07/28 10:21:35;;;;;;;;;1.00;1.00;;;;;;;;5043943;28;8879;-80
2021/07/28 10:24:04;;;;;;;;;2.40;2.40;;;;;;;;5042111;28;8866;-82
2021/07/28 10:26:36;;;;;;;;;1.40;1.40;;;;;;;;5045764;28;8878;-85
2021/07/28 10:29:03;;;;;;;;;1.60;1.60;;;;;;;;5058990;28;8872;-83
2021/07/28 10:31:45;;;;;;;;;2.60;1.60;;;;;;;;5030346;28;8819;-83
2021/07/28 10:34:23;;;;;;;;;2.00;2.00;;;;;;;;5050114;28;8845;-86
2021/07/28 10:36:52;;;;;;;;;2.00;2.00;;;;;;;;5047561;28;8897;-87
2021/07/28 10:39:35;;;;;;;;;3.00;1.60;;;;;;;;5056354;28;8860;-85
2021/07/28 10:42:04;;;;;;;;;4.80;1.80;;;;;;;;5043879;28;8868;-82
2021/07/28 10:44:32;;;;;;;;;1.80;1.00;;;;;;;;5061183;28;9021;-81
2021/07/28 10:47:36;;;;;;;;;1.80;1.80;;;;;;;;5044565;28;8897;-84
2021/07/28 10:50:04;;;;;;;;;1.00;1.00;;;;;;;;5032437;28;8986;-86
2021/07/28 10:52:44;;;;;;;;;4.00;3.00;;;;;;;;5047962;28;8866;-88
2021/07/28 10:55:17;;;;;;;;;1.60;1.60;;;;;;;;5044948;28;8958;-84
2021/07/28 10:58:21;;;;;;;;;2.00;2.00;;;;;;;;5043519;28;8926;-88
2021/07/28 11:01:04;;;;;;;;;1.40;1.40;;;;;;;;5053745;28;8765;-89
2021/07/28 11:03:37;;;;;;;;;2.40;2.20;;;;;;;;5037499;28;9057;-82
2021/07/28 11:06:17;;;;;;;;;1.40;1.40;;;;;;;;5047358;28;8864;-83
2021/07/28 11:08:44;;;;;;;;;1.20;1.20;;;;;;;;5038490;28;8881;-80
2021/07/28 11:11:29;;;;;;;;;1.00;1.00;;;;;;;;5058015;28;8903;-80
2021/07/28 11:14:04;;;;;;;;;1.00;1.00;;;;;;;;5042432;28;8861;-84
2021/07/28 11:16:36;;;;;;;;;0.80;0.40;;;;;;;;5049122;28;8906;-84
2021/07/28 11:19:03;;;;;;;;;2.40;1.40;;;;;;;;5032445;28;8892;-79
2021/07/28 11:21:31;;;;;;;;;1.00;1.00;;;;;;;;5034917;28;8864;-79
2021/07/28 11:24:02;;;;;;;;;2.00;2.00;;;;;;;;5053307;28;8860;-81
2021/07/28 11:26:32;;;;;;;;;1.80;1.80;;;;;;;;5045586;28;8897;-80
2021/07/28 11:29:00;;;;;;;;;2.80;2.00;;;;;;;;5027344;28;8884;-86
2021/07/28 11:31:36;;;;;;;;;1.00;1.00;;;;;;;;5052957;28;8801;-84
2021/07/28 11:34:15;;;;;;;;;4.60;2.00;;;;;;;;5053684;28;9344;-85
2021/07/28 11:36:44;;;;;;;;;1.60;1.60;;;;;;;;5044121;28;9052;-79
2021/07/28 11:39:18;;;;;;;;;0.80;0.80;;;;;;;;5050058;28;8874;-84
2021/07/28 11:41:47;;;;;;;;;1.00;1.00;;;;;;;;5049633;28;8871;-77
2021/07/28 11:44:15;;;;;;;;;1.00;1.00;;;;;;;;5012219;28;8875;-81
2021/07/28 11:46:51;;;;;;;;;0.60;0.60;;;;;;;;5045792;28;8885;-82
2021/07/28 11:49:18;;;;;;;;;2.00;2.00;;;;;;;;5048815;28;8891;-86
2021/07/28 11:51:46;;;;;;;;;2.40;2.40;;;;;;;;5051142;28;8870;-81
2021/07/28 11:54:14;;;;;;;;;0.80;0.80;;;;;;;;5051484;28;8955;-84
2021/07/28 11:56:50;;;;;;;;;1.00;1.00;;;;;;;;5047862;28;8900;-83
2021/07/28 11:59:21;;;;;;;;;1.00;1.00;;;;;;;;5046364;28;8890;-87
2021/07/28 12:01:51;;;;;;;;;0.40;0.40;;;;;;;;5049133;28;8794;-87
2021/07/28 12:04:21;;;;;;;;;1.60;1.60;;;;;;;;5049774;28;8858;-84
2021/07/28 12:06:49;;;;;;;;;0.20;0.20;;;;;;;;5052458;28;8887;-84
2021/07/28 12:09:21;;;;;;;;;1.20;1.20;;;;;;;;5045978;28;8874;-86
2021/07/28 12:12:00;;;;;;;;;1.00;1.00;;;;;;;;5045429;28;8884;-88
2021/07/28 12:14:33;;;;;;;;;2.00;1.00;;;;;;;;5044470;28;9786;-81
2021/07/28 12:17:04;;;;;;;;;1.60;1.60;;;;;;;;5043731;28;8854;-82
2021/07/28 12:19:35;;;;;;;;;1.00;1.00;;;;;;;;5042115;28;8900;-78
2021/07/28 12:22:06;;;;;;;;;1.40;1.40;;;;;;;;5042831;28;8881;-83
2021/07/28 12:24:35;;;;;;;;;2.60;2.60;;;;;;;;5042847;28;8879;-80
2021/07/28 12:27:42;;;;;;;;;1.00;1.00;;;;;;;;5050607;28;8996;-78
2021/07/28 12:30:20;;;;;;;;;1.00;1.00;;;;;;;;5043561;28;8858;-83
2021/07/28 12:32:52;;;;;;;;;0.00;0.00;;;;;;;;5041482;28;8965;-83
2021/07/28 12:35:31;;;;;;;;;1.00;1.00;;;;;;;;5045442;28;8878;-91
2021/07/28 12:38:11;;;;;;;;;3.00;1.40;;;;;;;;5048656;28;8994;-78
2021/07/28 12:40:42;;;;;;;;;1.00;1.00;;;;;;;;5031152;28;8874;-87
2021/07/28 12:43:10;;;;;;;;;0.40;0.00;;;;;;;;5046179;28;8912;-84
2021/07/28 12:45:37;;;;;;;;;1.80;1.80;;;;;;;;5044763;28;8875;-86
2021/07/28 12:48:07;;;;;;;;;1.00;1.00;;;;;;;;5045081;28;8907;-85
2021/07/28 12:50:35;;;;;;;;;1.80;1.00;;;;;;;;5046398;28;8858;-83
2021/07/28 12:53:04;;;;;;;;;1.00;1.00;;;;;;;;5037200;28;8979;-85
2021/07/28 12:55:32;;;;;;;;;0.40;0.40;;;;;;;;5058260;28;8872;-81
2021/07/28 12:57:59;;;;;;;;;1.00;1.00;;;;;;;;5037254;28;9060;-82
2021/07/28 13:00:26;;;;;;;;;1.80;1.80;;;;;;;;5049600;28;8794;-82
2021/07/28 13:02:54;;;;;;;;;2.00;2.00;;;;;;;;5055117;28;8868;-81
2021/07/28 13:05:25;;;;;;;;;1.20;1.20;;;;;;;;5050924;28;8886;-81
2021/07/28 13:08:08;;;;;;;;;2.00;2.00;;;;;;;;5034584;28;8852;-80
2021/07/28 13:10:35;;;;;;;;;2.00;2.00;;;;;;;;5062655;28;8896;-82
2021/07/28 13:13:03;;;;;;;;;1.80;1.80;;;;;;;;5028960;28;8897;-79
2021/07/28 13:15:30;;;;;;;;;1.40;1.40;;;;;;;;5059724;28;8868;-80
2021/07/28 13:17:57;;;;;;;;;3.00;1.20;;;;;;;;5044971;28;8847;-79
2021/07/28 13:20:27;;;;;;;;;2.40;1.40;;;;;;;;5051452;28;8859;-80
2021/07/28 13:23:03;;;;;;;;;1.00;1.00;;;;;;;;5040344;28;8890;-86
2021/07/28 13:25:30;;;;;;;;;2.80;1.40;;;;;;;;5014895;28;8878;-80
2021/07/28 13:27:58;;;;;;;;;0.20;0.20;;;;;;;;5047224;28;8880;-82
2021/07/28 13:30:29;;;;;;;;;2.00;2.00;;;;;;;;5063379;28;8784;-79
2021/07/28 13:32:57;;;;;;;;;1.60;1.60;;;;;;;;5044283;28;9788;-82
2021/07/28 13:35:26;;;;;;;;;1.40;1.00;;;;;;;;5045707;28;8949;-79
2021/07/28 13:37:54;;;;;;;;;3.20;1.80;;;;;;;;5047170;28;8917;-75
2021/07/28 13:40:23;;;;;;;;;2.00;2.00;;;;;;;;5044581;28;8886;-80
2021/07/28 13:42:51;;;;;;;;;2.20;2.20;;;;;;;;5042282;28;8850;-79
2021/07/28 13:45:19;;;;;;;;;2.80;2.00;;;;;;;;5046724;28;8881;-79
2021/07/28 13:47:47;;;;;;;;;1.00;1.00;;;;;;;;5054385;28;8852;-83
2021/07/28 13:50:15;;;;;;;;;2.00;2.00;;;;;;;;5049285;28;8862;-80
2021/07/28 13:52:44;;;;;;;;;2.00;2.00;;;;;;;;5063264;28;8978;-81
2021/07/28 13:55:12;;;;;;;;;0.40;0.40;;;;;;;;5047998;28;8860;-81
2021/07/28 13:57:41;;;;;;;;;1.20;1.20;;;;;;;;5057378;28;9007;-82
2021/07/28 14:00:11;;;;;;;;;0.80;0.80;;;;;;;;5060694;28;8856;-81
2021/07/28 14:02:41;;;;;;;;;2.00;2.00;;;;;;;;5041734;28;8863;-86
2021/07/28 14:05:09;;;;;;;;;1.80;1.80;;;;;;;;5023889;28;8889;-82
2021/07/28 14:07:43;;;;;;;;;1.60;1.60;;;;;;;;5040426;28;8893;-83
2021/07/28 14:10:11;;;;;;;;;0.80;0.80;;;;;;;;5062823;28;8868;-80
2021/07/28 14:12:39;;;;;;;;;1.80;1.80;;;;;;;;5048916;28;9008;-80
2021/07/28 14:15:07;;;;;;;;;1.00;1.00;;;;;;;;5041878;28;8873;-83
2021/07/28 14:17:34;;;;;;;;;1.20;1.20;;;;;;;;5043459;28;8872;-84
2021/07/28 14:20:05;;;;;;;;;0.60;0.60;;;;;;;;5061866;28;8880;-82
2021/07/28 14:22:33;;;;;;;;;2.00;2.00;;;;;;;;5062266;28;8896;-81
2021/07/28 14:25:08;;;;;;;;;2.80;1.60;;;;;;;;5062503;28;8895;-81
2021/07/28 14:27:36;;;;;;;;;1.80;1.80;;;;;;;;5049307;28;8875;-80
2021/07/28 14:30:03;;;;;;;;;2.20;1.60;;;;;;;;5052080;28;8904;-82
2021/07/28 14:32:31;;;;;;;;;1.00;1.00;;;;;;;;5058981;28;9674;-80
2021/07/28 14:34:58;;;;;;;;;2.00;2.00;;;;;;;;5062709;28;8872;-82
2021/07/28 14:37:25;;;;;;;;;4.00;2.00;;;;;;;;5057769;28;8890;-88
2021/07/28 14:39:53;;;;;;;;;1.80;1.80;;;;;;;;5043370;28;8878;-79
2021/07/28 14:42:22;;;;;;;;;3.20;2.00;;;;;;;;5051379;28;8868;-82
2021/07/28 14:44:50;;;;;;;;;1.00;1.00;;;;;;;;5053394;28;8985;-82
2021/07/28 14:47:17;;;;;;;;;1.00;1.00;;;;;;;;5053832;28;8895;-79
2021/07/28 14:49:45;;;;;;;;;2.00;2.00;;;;;;;;5054123;28;8930;-80
2021/07/28 14:52:13;;;;;;;;;1.40;1.40;;;;;;;;5061912;28;8848;-81
2021/07/28 14:54:41;;;;;;;;;2.20;2.00;;;;;;;;5047842;28;8866;-81
2021/07/28 14:57:08;;;;;;;;;0.80;0.80;;;;;;;;5042123;28;8854;-80
2021/07/28 14:59:36;;;;;;;;;1.00;1.00;;;;;;;;5043335;28;8957;-81
2021/07/28 15:02:07;;;;;;;;;1.00;1.00;;;;;;;;5053819;28;9199;-84
2021/07/28 15:04:34;;;;;;;;;0.80;0.80;;;;;;;;5045911;28;9001;-81
2021/07/28 15:07:02;;;;;;;;;2.40;2.40;;;;;;;;5045275;28;9642;-79
2021/07/28 15:09:29;;;;;;;;;1.40;1.40;;;;;;;;5061745;28;8988;-80
2021/07/28 15:11:56;;;;;;;;;1.80;1.80;;;;;;;;5048195;28;8864;-81
2021/07/28 15:14:24;;;;;;;;;1.60;1.60;;;;;;;;5053488;28;9531;-79